Brainard, NY (12024)

7:28 AM EDT on March 28, 2015 (GMT -0400)
Kinderhook Badlands | | Change Station
CLOSE
Current Station
Personal Weather Station
Location: Valatie, NY
Elevation: 410 ft
Nearby Weather Stations

Elev 410 ft 42.38 °N, 73.64 °W | Updated 5 seconds ago

Snow
Snow
26.8 °F
Feels Like 17 °F
N
10.4
Wind Variable Wind from North
Gusts 10.4 mph

Today
High -- | Low -- °F
--% Chance of Precip.
Yesterday
High -- | Low -- °F
Precip. -- in
6:44 AM 7:15 PM
First Quarter, 61% visible
Pressure 29.77 in
Visibility 6.0 miles
Clouds Overcast 900 ft
Windchill 17 °F
Dew Point 22 °F
Humidity 81%
Rainfall 0.00 in
Snow Depth Not available.
UV 0 out of 12
Pollen 2.60 out of 12
Air Quality Not available.
Flu Activity Not available.
METAR KPSF 281054Z AUTO 30009KT 6SM -SN BR OVC009 M03/M05 A2974 RMK AO2 SNB27 SLP079 P0000 T10331050

More Conditions Fewer Conditions

Pressure 29.77 in
Visibility 6.0 miles
Clouds Overcast 900 ft
Windchill 17 °F
Dew Point 22 °F
Humidity 81%
Rainfall 0.00 in
Snow Depth Not available.
UV 0 out of 12
Pollen 2.60 out of 12
Air Quality Not available.
Flu Activity Not available.
METAR KPSF 281054Z AUTO 30009KT 6SM -SN BR OVC009 M03/M05 A2974 RMK AO2 SNB27 SLP079 P0000 T10331050

More Conditions Fewer Conditions

10-Day Weather Forecast

Almanac

Astronomy

Mar. 28, 2015 Rise Set
Actual Time
Civil Twilight
Nautical Twilight
Astronomical Twilight
Moon
Length of Visible Light
Length of Day
Tomorrow will be .
, % of the Moon is Illuminated

Today's Extremes

State Highs State Lows

Community

WunderPhotos

Upload Photos

1,808,956 photos uploaded!

WunderBlogs® & News

Nearby

Air Quality

  Air Quality AQ Index Pollutant
Not available.

Snow Depth

Station Depth Elevation

Earthquake Activity

City Distance Mag. Time & Date
Minimum magnitude displayed is 2.5.

Coastal Water Temperatures

Place Temperature

Stations

Nearby Weather Stations

Station Location Temp. Windchill Dew Point Humidity Wind Precip. Elev Updated Type